Surface observations / Quebec / CYHU

Quebec | Canada | USA | France | UK | Europe | Elsewhere

Display: Info & Location for CYHU | Help decoding METAR

YHU SAINT-HUBERT ARPT QB CN
Raw surface observations for station CYHU
CYHU 282000Z AUTO 36018KT 9SM -RA OVC010 17/15 A2958 RMK MAX WND 01022KT AT 1909Z PCPN 2.0MM PAST HR SLP016 DENSITY ALT 600FT=
CYHU 281900Z AUTO 01016KT 9SM -RA BKN012 OVC060 17/15 A2957 RMK MAX WND 01025KT AT 1841Z PCPN 2.5MM PAST HR SLP014 DENSITY ALT 700FT=
CYHU 281817Z AUTO 01016G22KT 8SM RA BKN010 BKN070 OVC085 17/15 A2957 RMK MAX WND 01023KT AT 1803Z PCPN 1.2MM PAST HR SLP014 DENSITY ALT 700FT=
CYHU 281800Z AUTO 01015G21KT 9SM -RA SCT012 OVC085 17/15 A2959 RMK MAX WND 01021KT AT 1755Z PRESFR PCPN 1.8MM PAST HR SLP018 DENSITY ALT 600FT=
CYHU 281723Z AUTO 02013G20KT 9SM -RA BKN010 BKN075 OVC087 17/15 A2960 RMK MAX WND 01021KT AT 1707Z PRESFR PCPN 0.8MM PAST HR SLP023 DENSITY ALT 600FT=
CYHU 281700Z AUTO 02014G20KT 8SM RA FEW013 BKN070 OVC087 17/15 A2961 RMK MAX WND 02020KT AT 1656Z PCPN 1.8MM PAST HR SLP026 DENSITY ALT 600FT=
CYHU 281633Z AUTO 03012G18KT 9SM -RA SCT015 BKN070 OVC087 17/15 A2963 RMK MAX WND 02018KT AT 1630Z PCPN 0.8MM PAST HR SLP033 DENSITY ALT 600FT=
CYHU 281600Z AUTO 02012KT 9SM -RA OVC015 17/15 A2964 RMK MAX WND 03016KT AT 1517Z PCPN 0.8MM PAST HR SLP036 DENSITY ALT 600FT=
CYHU 281500Z AUTO 02013G18KT 9SM -RA BKN013 BKN075 OVC090 17/15 A2964 RMK MAX WND 03019KT AT 1443Z PCPN 0.5MM PAST HR SLP036 DENSITY ALT 600FT=
CYHU 281423Z AUTO 02012KT 9SM -RA OVC013 17/14 A2965 RMK MAX WND 01016KT AT 1403Z SLP039 DENSITY ALT 600FT=
CYHU 281400Z AUTO 02010G18KT 9SM BKN013 BKN060 BKN089 17/15 A2965 RMK MAX WND 02018KT AT 1357Z SLP040 DENSITY ALT 600FT=
CYHU 281300Z AUTO 05008KT 9SM BKN015 BKN170 17/14 A2968 RMK SLP050 DENSITY ALT 500FT=
CYHU 281253Z AUTO 04007KT 9SM BKN015 BKN025 BKN170 17/14 A2968 RMK SLP049 DENSITY ALT 600FT=
CYHU 281200Z AUTO 05008KT 9SM SCT150 BKN220 17/14 A2966 RMK SLP042 DENSITY ALT 500FT=
CYHU 281100Z AUTO 04009KT 9SM CLR 16/14 A2965 RMK SLP041 DENSITY ALT 500FT=
CYHU 281000Z AUTO 02007KT 9SM SCT210 15/14 A2965 RMK SLP039 DENSITY ALT 400FT=
CYHU 280900Z AUTO 05003KT 9SM CLR 15/14 A2966 RMK SLP042 DENSITY ALT 400FT=
CYHU 280800Z AUTO 04004KT 9SM SCT034 16/14 A2964 RMK SLP037 DENSITY ALT 500FT=
CYHU 280700Z AUTO 02008KT 9SM CLR 17/15 A2964 RMK SLP038 DENSITY ALT 600FT=
CYHU 280600Z AUTO 01007KT 9SM CLR 18/16 A2964 RMK SLP037 DENSITY ALT 700FT=
CYHU 280500Z AUTO 36006KT 9SM BKN035 18/17 A2965 RMK SLP041 DENSITY ALT 700FT=
CYHU 280400Z AUTO 01005KT 9SM CLR 18/16 A2964 RMK SLP035 DENSITY ALT 800FT=
CYHU 280300Z AUTO 35005KT 9SM FEW012 SCT024 BKN034 OVC050 20/17 A2963 RMK SLP032 DENSITY ALT 1000FT=
CYHU 280259Z AUTO 35005KT 9SM FEW012 SCT024 BKN034 OVC050 20/17 A2963 RMK SLP032 DENSITY ALT 1000FT=
CYHU 280241Z AUTO 33007KT 9SM SCT012 BKN024 OVC038 20/17 A2963 RMK LTNG DIST E SLP034 DENSITY ALT 1000FT=
CYHU 280203Z AUTO 24004KT 9SM FEW025 SCT050 BKN060 BKN097 20/18 A2962 RMK LTNG DIST NE SLP030 DENSITY ALT 1000FT=
CYHU 280100Z AUTO 20008KT 9SM -RA FEW038 SCT065 OVC110 22/18 A2961 RMK SLP025 DENSITY ALT 1200FT=
CYHU 280000Z AUTO 20008KT 9SM SCT029 22/18 A2959 RMK SLP020 DENSITY ALT 1300FT=
CYHU 272300Z AUTO 19006KT 9SM FEW130 24/18 A2960 RMK SLP023 DENSITY ALT 1400FT=
CYHU 272200Z AUTO 23007KT 9SM FEW065 SCT120 SCT140 24/17 A2959 RMK MAX WND 23016KT AT 2108Z SLP019 DENSITY ALT 1400FT=
CYHU 272100Z AUTO 21012G18KT 9SM FEW100 BKN120 BKN180 24/17 A2959 RMK MAX WND 20018KT AT 2053Z SLP019 DENSITY ALT 1500FT=
CYHU 272000Z AUTO 24012KT 9SM BKN080 25/16 A2959 RMK MAX WND 22016KT AT 1953Z SLP020 DENSITY ALT 1600FT=